sensor_id;sensor_type;location;lat;lon;timestamp;temperature;humidity
46159;DHT22;31888;44.512;26.104;2023-04-19T00:02:18;11.70;99.90
46159;DHT22;31888;44.512;26.104;2023-04-19T00:04:43;11.70;99.90
46159;DHT22;31888;44.512;26.104;2023-04-19T00:07:08;11.70;99.90
46159;DHT22;31888;44.512;26.104;2023-04-19T00:09:33;11.70;99.90
46159;DHT22;31888;44.512;26.104;2023-04-19T00:11:58;11.70;99.90
46159;DHT22;31888;44.512;26.104;2023-04-19T00:14:23;11.60;99.90
46159;DHT22;31888;44.512;26.104;2023-04-19T00:16:48;11.50;99.90
46159;DHT22;31888;44.512;26.104;2023-04-19T00:19:12;11.50;99.90
46159;DHT22;31888;44.512;26.104;2023-04-19T00:21:37;11.40;99.90
46159;DHT22;31888;44.512;26.104;2023-04-19T00:24:02;11.40;99.90
46159;DHT22;31888;44.512;26.104;2023-04-19T00:26:26;11.20;99.90
46159;DHT22;31888;44.512;26.104;2023-04-19T00:28:54;11.20;99.90
46159;DHT22;31888;44.512;26.104;2023-04-19T00:31:18;11.10;99.90
46159;DHT22;31888;44.512;26.104;2023-04-19T00:33:44;11.10;99.90
46159;DHT22;31888;44.512;26.104;2023-04-19T00:36:08;11.00;99.90
46159;DHT22;31888;44.512;26.104;2023-04-19T00:38:34;11.00;99.90
46159;DHT22;31888;44.512;26.104;2023-04-19T00:40:58;11.00;99.90
46159;DHT22;31888;44.512;26.104;2023-04-19T00:43:23;11.00;99.90
46159;DHT22;31888;44.512;26.104;2023-04-19T00:45:49;11.00;99.90
46159;DHT22;31888;44.512;26.104;2023-04-19T00:48:14;11.00;99.90
46159;DHT22;31888;44.512;26.104;2023-04-19T00:50:41;11.10;99.90
46159;DHT22;31888;44.512;26.104;2023-04-19T00:53:07;11.10;99.90
46159;DHT22;31888;44.512;26.104;2023-04-19T00:55:32;11.10;99.90
46159;DHT22;31888;44.512;26.104;2023-04-19T00:57:57;11.20;99.90
46159;DHT22;31888;44.512;26.104;2023-04-19T01:00:22;11.20;99.90
46159;DHT22;31888;44.512;26.104;2023-04-19T01:02:48;11.20;99.90
46159;DHT22;31888;44.512;26.104;2023-04-19T01:05:14;11.20;99.90
46159;DHT22;31888;44.512;26.104;2023-04-19T01:07:39;11.20;99.90
46159;DHT22;31888;44.512;26.104;2023-04-19T01:10:04;11.20;99.90
46159;DHT22;31888;44.512;26.104;2023-04-19T01:12:29;11.30;99.90
46159;DHT22;31888;44.512;26.104;2023-04-19T01:14:54;11.20;99.90
46159;DHT22;31888;44.512;26.104;2023-04-19T01:17:19;11.30;99.90
46159;DHT22;31888;44.512;26.104;2023-04-19T01:19:45;11.30;99.90
46159;DHT22;31888;44.512;26.104;2023-04-19T01:22:17;11.30;99.90
46159;DHT22;31888;44.512;26.104;2023-04-19T01:24:43;11.30;99.90
46159;DHT22;31888;44.512;26.104;2023-04-19T01:27:10;11.30;99.90
46159;DHT22;31888;44.512;26.104;2023-04-19T01:29:36;11.40;99.90
46159;DHT22;31888;44.512;26.104;2023-04-19T01:32:00;11.40;99.90
46159;DHT22;31888;44.512;26.104;2023-04-19T01:34:25;11.40;99.90
46159;DHT22;31888;44.512;26.104;2023-04-19T01:36:50;11.40;99.90
46159;DHT22;31888;44.512;26.104;2023-04-19T01:39:16;11.30;99.90
46159;DHT22;31888;44.512;26.104;2023-04-19T01:41:41;11.30;99.90
46159;DHT22;31888;44.512;26.104;2023-04-19T01:44:05;11.30;99.90
46159;DHT22;31888;44.512;26.104;2023-04-19T01:46:30;11.30;99.90
46159;DHT22;31888;44.512;26.104;2023-04-19T01:48:55;11.30;99.90
46159;DHT22;31888;44.512;26.104;2023-04-19T01:51:19;11.30;99.90
46159;DHT22;31888;44.512;26.104;2023-04-19T01:53:45;11.30;99.90
46159;DHT22;31888;44.512;26.104;2023-04-19T01:56:12;11.30;99.90
46159;DHT22;31888;44.512;26.104;2023-04-19T01:58:37;11.30;99.90
46159;DHT22;31888;44.512;26.104;2023-04-19T02:01:01;11.30;99.90
46159;DHT22;31888;44.512;26.104;2023-04-19T02:03:27;11.30;99.90
46159;DHT22;31888;44.512;26.104;2023-04-19T02:05:52;11.30;99.90
46159;DHT22;31888;44.512;26.104;2023-04-19T02:08:17;11.20;99.90
46159;DHT22;31888;44.512;26.104;2023-04-19T02:10:42;11.30;99.90
46159;DHT22;31888;44.512;26.104;2023-04-19T02:13:08;11.30;99.90
46159;DHT22;31888;44.512;26.104;2023-04-19T02:15:35;11.30;99.90
46159;DHT22;31888;44.512;26.104;2023-04-19T02:18:19;11.30;99.90
46159;DHT22;31888;44.512;26.104;2023-04-19T02:20:45;11.30;99.90
46159;DHT22;31888;44.512;26.104;2023-04-19T02:23:11;11.30;99.90
46159;DHT22;31888;44.512;26.104;2023-04-19T02:25:39;11.30;99.90
46159;DHT22;31888;44.512;26.104;2023-04-19T02:28:04;11.30;99.90
46159;DHT22;31888;44.512;26.104;2023-04-19T02:30:30;11.30;99.90
46159;DHT22;31888;44.512;26.104;2023-04-19T02:32:56;11.40;99.90
46159;DHT22;31888;44.512;26.104;2023-04-19T02:35:22;11.40;99.90
46159;DHT22;31888;44.512;26.104;2023-04-19T02:37:46;11.20;99.90
46159;DHT22;31888;44.512;26.104;2023-04-19T02:40:11;11.10;99.90
46159;DHT22;31888;44.512;26.104;2023-04-19T02:42:36;11.00;99.90
46159;DHT22;31888;44.512;26.104;2023-04-19T02:45:00;11.00;99.90
46159;DHT22;31888;44.512;26.104;2023-04-19T02:47:29;11.10;99.90
46159;DHT22;31888;44.512;26.104;2023-04-19T02:49:54;11.20;99.90
46159;DHT22;31888;44.512;26.104;2023-04-19T02:52:19;11.20;99.90
46159;DHT22;31888;44.512;26.104;2023-04-19T02:54:43;11.20;99.90
46159;DHT22;31888;44.512;26.104;2023-04-19T02:57:08;11.20;99.90
46159;DHT22;31888;44.512;26.104;2023-04-19T02:59:35;11.30;99.90
46159;DHT22;31888;44.512;26.104;2023-04-19T03:02:00;11.20;99.90
46159;DHT22;31888;44.512;26.104;2023-04-19T03:04:27;11.20;99.90
46159;DHT22;31888;44.512;26.104;2023-04-19T03:06:54;11.30;99.90
46159;DHT22;31888;44.512;26.104;2023-04-19T03:09:19;11.30;99.90
46159;DHT22;31888;44.512;26.104;2023-04-19T03:11:44;11.30;99.90
46159;DHT22;31888;44.512;26.104;2023-04-19T03:14:09;11.30;99.90
46159;DHT22;31888;44.512;26.104;2023-04-19T03:16:33;11.20;99.90
46159;DHT22;31888;44.512;26.104;2023-04-19T03:19:00;11.20;99.90
46159;DHT22;31888;44.512;26.104;2023-04-19T03:21:31;11.20;99.90
46159;DHT22;31888;44.512;26.104;2023-04-19T03:23:55;11.30;99.90
46159;DHT22;31888;44.512;26.104;2023-04-19T03:26:21;11.30;99.90
46159;DHT22;31888;44.512;26.104;2023-04-19T03:28:49;11.30;99.90
46159;DHT22;31888;44.512;26.104;2023-04-19T03:31:14;11.40;99.90
46159;DHT22;31888;44.512;26.104;2023-04-19T03:33:39;11.40;99.90
46159;DHT22;31888;44.512;26.104;2023-04-19T03:36:07;11.40;99.90
46159;DHT22;31888;44.512;26.104;2023-04-19T03:38:35;11.30;99.90
46159;DHT22;31888;44.512;26.104;2023-04-19T03:41:03;11.30;99.90
46159;DHT22;31888;44.512;26.104;2023-04-19T03:43:32;11.30;99.90
46159;DHT22;31888;44.512;26.104;2023-04-19T03:45:56;11.30;99.90
46159;DHT22;31888;44.512;26.104;2023-04-19T03:48:23;11.30;99.90
46159;DHT22;31888;44.512;26.104;2023-04-19T03:50:51;11.30;99.90
46159;DHT22;31888;44.512;26.104;2023-04-19T03:53:20;11.20;99.90
46159;DHT22;31888;44.512;26.104;2023-04-19T03:55:46;11.10;99.90
46159;DHT22;31888;44.512;26.104;2023-04-19T03:58:11;11.10;99.90
46159;DHT22;31888;44.512;26.104;2023-04-19T04:00:45;11.10;99.90
46159;DHT22;31888;44.512;26.104;2023-04-19T04:03:10;11.00;99.90
46159;DHT22;31888;44.512;26.104;2023-04-19T04:05:35;11.10;99.90
46159;DHT22;31888;44.512;26.104;2023-04-19T04:08:00;11.10;99.90
46159;DHT22;31888;44.512;26.104;2023-04-19T04:10:25;11.10;99.90
46159;DHT22;31888;44.512;26.104;2023-04-19T04:12:51;11.10;99.90
46159;DHT22;31888;44.512;26.104;2023-04-19T04:15:23;11.20;99.90
46159;DHT22;31888;44.512;26.104;2023-04-19T04:17:52;11.20;99.90
46159;DHT22;31888;44.512;26.104;2023-04-19T04:20:17;11.20;99.90
46159;DHT22;31888;44.512;26.104;2023-04-19T04:22:42;11.30;99.90
46159;DHT22;31888;44.512;26.104;2023-04-19T04:25:10;11.30;99.90
46159;DHT22;31888;44.512;26.104;2023-04-19T04:27:57;11.30;99.90
46159;DHT22;31888;44.512;26.104;2023-04-19T04:30:23;11.40;99.90
46159;DHT22;31888;44.512;26.104;2023-04-19T04:32:52;11.30;99.90
46159;DHT22;31888;44.512;26.104;2023-04-19T04:35:20;11.30;99.90
46159;DHT22;31888;44.512;26.104;2023-04-19T04:37:51;11.30;99.90
46159;DHT22;31888;44.512;26.104;2023-04-19T04:40:17;11.40;99.90
46159;DHT22;31888;44.512;26.104;2023-04-19T04:42:42;11.40;99.90
46159;DHT22;31888;44.512;26.104;2023-04-19T04:45:10;11.40;99.90
46159;DHT22;31888;44.512;26.104;2023-04-19T04:47:38;11.50;99.90
46159;DHT22;31888;44.512;26.104;2023-04-19T04:50:03;11.50;99.90
46159;DHT22;31888;44.512;26.104;2023-04-19T04:52:28;11.60;99.90
46159;DHT22;31888;44.512;26.104;2023-04-19T04:55:01;11.60;99.90
46159;DHT22;31888;44.512;26.104;2023-04-19T04:57:29;11.70;99.90
46159;DHT22;31888;44.512;26.104;2023-04-19T04:59:55;11.80;99.90
46159;DHT22;31888;44.512;26.104;2023-04-19T05:02:28;11.80;99.90
46159;DHT22;31888;44.512;26.104;2023-04-19T05:04:53;11.90;99.90
46159;DHT22;31888;44.512;26.104;2023-04-19T05:07:17;12.00;99.90
46159;DHT22;31888;44.512;26.104;2023-04-19T05:09:42;12.00;99.90
46159;DHT22;31888;44.512;26.104;2023-04-19T05:12:09;12.10;99.90
46159;DHT22;31888;44.512;26.104;2023-04-19T05:14:34;12.10;99.90
46159;DHT22;31888;44.512;26.104;2023-04-19T05:16:59;12.10;99.90
46159;DHT22;31888;44.512;26.104;2023-04-19T05:19:25;12.20;99.90
46159;DHT22;31888;44.512;26.104;2023-04-19T05:21:56;12.30;99.90
46159;DHT22;31888;44.512;26.104;2023-04-19T05:24:21;12.30;99.90
46159;DHT22;31888;44.512;26.104;2023-04-19T05:26:46;12.30;99.90
46159;DHT22;31888;44.512;26.104;2023-04-19T05:29:11;12.40;99.90
46159;DHT22;31888;44.512;26.104;2023-04-19T05:31:41;12.60;99.90
46159;DHT22;31888;44.512;26.104;2023-04-19T05:34:33;12.90;99.90
46159;DHT22;31888;44.512;26.104;2023-04-19T05:36:59;13.20;99.90
46159;DHT22;31888;44.512;26.104;2023-04-19T05:39:23;13.60;99.90
46159;DHT22;31888;44.512;26.104;2023-04-19T05:41:48;13.80;99.90
46159;DHT22;31888;44.512;26.104;2023-04-19T05:44:14;14.10;99.90
46159;DHT22;31888;44.512;26.104;2023-04-19T05:46:40;14.30;99.90
46159;DHT22;31888;44.512;26.104;2023-04-19T05:49:07;14.60;99.90
46159;DHT22;31888;44.512;26.104;2023-04-19T05:52:08;15.00;99.90
46159;DHT22;31888;44.512;26.104;2023-04-19T05:54:43;15.50;99.90
46159;DHT22;31888;44.512;26.104;2023-04-19T05:57:07;16.00;99.90
46159;DHT22;31888;44.512;26.104;2023-04-19T05:59:32;16.50;99.90
46159;DHT22;31888;44.512;26.104;2023-04-19T06:01:57;16.80;99.90
46159;DHT22;31888;44.512;26.104;2023-04-19T06:04:22;16.60;98.90
46159;DHT22;31888;44.512;26.104;2023-04-19T06:06:47;16.60;99.30
46159;DHT22;31888;44.512;26.104;2023-04-19T06:09:13;16.10;99.60
46159;DHT22;31888;44.512;26.104;2023-04-19T06:11:38;15.90;99.70
46159;DHT22;31888;44.512;26.104;2023-04-19T06:14:13;15.50;99.90
46159;DHT22;31888;44.512;26.104;2023-04-19T06:16:39;15.50;99.90
46159;DHT22;31888;44.512;26.104;2023-04-19T06:19:04;15.60;99.90
46159;DHT22;31888;44.512;26.104;2023-04-19T06:21:29;15.40;99.90
46159;DHT22;31888;44.512;26.104;2023-04-19T06:23:58;15.50;99.90
46159;DHT22;31888;44.512;26.104;2023-04-19T06:26:27;15.50;99.90
46159;DHT22;31888;44.512;26.104;2023-04-19T06:28:51;15.80;99.90
46159;DHT22;31888;44.512;26.104;2023-04-19T06:31:28;16.10;99.50
46159;DHT22;31888;44.512;26.104;2023-04-19T06:33:53;16.50;99.30
46159;DHT22;31888;44.512;26.104;2023-04-19T06:36:17;16.80;98.20
46159;DHT22;31888;44.512;26.104;2023-04-19T06:38:42;16.80;97.90
46159;DHT22;31888;44.512;26.104;2023-04-19T06:41:08;16.80;98.30
46159;DHT22;31888;44.512;26.104;2023-04-19T06:43:34;16.60;98.10
46159;DHT22;31888;44.512;26.104;2023-04-19T06:45:59;16.60;98.80
46159;DHT22;31888;44.512;26.104;2023-04-19T06:48:27;16.70;98.20
46159;DHT22;31888;44.512;26.104;2023-04-19T06:50:54;16.70;98.50
46159;DHT22;31888;44.512;26.104;2023-04-19T06:53:22;17.40;97.10
46159;DHT22;31888;44.512;26.104;2023-04-19T06:55:57;17.60;96.10
46159;DHT22;31888;44.512;26.104;2023-04-19T06:58:23;17.60;95.90
46159;DHT22;31888;44.512;26.104;2023-04-19T07:00:49;17.60;95.90
46159;DHT22;31888;44.512;26.104;2023-04-19T07:03:13;17.70;95.60
46159;DHT22;31888;44.512;26.104;2023-04-19T07:05:38;17.90;95.20
46159;DHT22;31888;44.512;26.104;2023-04-19T07:08:03;17.90;94.90
46159;DHT22;31888;44.512;26.104;2023-04-19T07:10:28;18.00;94.80
46159;DHT22;31888;44.512;26.104;2023-04-19T07:12:56;18.10;95.30
46159;DHT22;31888;44.512;26.104;2023-04-19T07:15:20;18.10;95.00
46159;DHT22;31888;44.512;26.104;2023-04-19T07:17:46;18.20;94.70
46159;DHT22;31888;44.512;26.104;2023-04-19T07:20:11;18.30;94.80
46159;DHT22;31888;44.512;26.104;2023-04-19T07:22:36;18.30;94.00
46159;DHT22;31888;44.512;26.104;2023-04-19T07:25:02;18.50;94.20
46159;DHT22;31888;44.512;26.104;2023-04-19T07:27:27;18.90;93.70
46159;DHT22;31888;44.512;26.104;2023-04-19T07:29:52;19.10;93.90
46159;DHT22;31888;44.512;26.104;2023-04-19T07:32:16;19.00;93.40
46159;DHT22;31888;44.512;26.104;2023-04-19T07:34:42;19.10;93.20
46159;DHT22;31888;44.512;26.104;2023-04-19T07:37:08;19.00;92.90
46159;DHT22;31888;44.512;26.104;2023-04-19T07:39:33;18.80;92.70
46159;DHT22;31888;44.512;26.104;2023-04-19T07:41:58;18.50;93.70
46159;DHT22;31888;44.512;26.104;2023-04-19T07:44:23;18.60;93.70
46159;DHT22;31888;44.512;26.104;2023-04-19T07:46:48;18.20;93.90
46159;DHT22;31888;44.512;26.104;2023-04-19T07:49:13;18.30;94.60
46159;DHT22;31888;44.512;26.104;2023-04-19T07:51:41;18.60;94.10
46159;DHT22;31888;44.512;26.104;2023-04-19T07:54:09;18.10;94.60
46159;DHT22;31888;44.512;26.104;2023-04-19T07:56:33;18.30;95.50
46159;DHT22;31888;44.512;26.104;2023-04-19T07:58:59;18.60;94.90
46159;DHT22;31888;44.512;26.104;2023-04-19T08:01:31;18.70;94.40
46159;DHT22;31888;44.512;26.104;2023-04-19T08:03:56;18.60;94.50
46159;DHT22;31888;44.512;26.104;2023-04-19T08:06:21;18.70;94.30
46159;DHT22;31888;44.512;26.104;2023-04-19T08:08:47;18.70;94.10
46159;DHT22;31888;44.512;26.104;2023-04-19T08:11:12;18.80;94.60
46159;DHT22;31888;44.512;26.104;2023-04-19T08:13:38;18.90;94.70
46159;DHT22;31888;44.512;26.104;2023-04-19T08:16:03;19.20;94.10
46159;DHT22;31888;44.512;26.104;2023-04-19T08:18:47;19.20;93.30
46159;DHT22;31888;44.512;26.104;2023-04-19T08:21:14;19.00;93.30
46159;DHT22;31888;44.512;26.104;2023-04-19T08:23:38;19.00;93.20
46159;DHT22;31888;44.512;26.104;2023-04-19T08:26:14;19.10;93.40
46159;DHT22;31888;44.512;26.104;2023-04-19T08:28:39;19.40;93.10
46159;DHT22;31888;44.512;26.104;2023-04-19T08:31:05;19.60;92.10
46159;DHT22;31888;44.512;26.104;2023-04-19T08:33:38;19.70;92.50
46159;DHT22;31888;44.512;26.104;2023-04-19T08:36:06;19.30;92.50
46159;DHT22;31888;44.512;26.104;2023-04-19T08:38:31;19.30;92.30
46159;DHT22;31888;44.512;26.104;2023-04-19T08:41:01;19.30;92.30
46159;DHT22;31888;44.512;26.104;2023-04-19T08:43:29;19.40;92.10
46159;DHT22;31888;44.512;26.104;2023-04-19T08:45:56;19.40;93.30
46159;DHT22;31888;44.512;26.104;2023-04-19T08:48:34;19.80;92.30
46159;DHT22;31888;44.512;26.104;2023-04-19T08:50:59;19.90;91.80
46159;DHT22;31888;44.512;26.104;2023-04-19T08:53:28;19.80;92.00
46159;DHT22;31888;44.512;26.104;2023-04-19T08:55:53;19.80;92.60
46159;DHT22;31888;44.512;26.104;2023-04-19T08:58:41;19.70;92.20
46159;DHT22;31888;44.512;26.104;2023-04-19T09:01:25;19.40;92.50
46159;DHT22;31888;44.512;26.104;2023-04-19T09:03:58;19.40;92.70
46159;DHT22;31888;44.512;26.104;2023-04-19T09:06:43;19.60;92.30
46159;DHT22;31888;44.512;26.104;2023-04-19T09:09:14;19.80;91.70
46159;DHT22;31888;44.512;26.104;2023-04-19T09:11:42;19.40;91.80
46159;DHT22;31888;44.512;26.104;2023-04-19T09:14:09;19.30;92.40
46159;DHT22;31888;44.512;26.104;2023-04-19T09:16:34;19.40;92.20
46159;DHT22;31888;44.512;26.104;2023-04-19T09:18:59;19.30;91.90
46159;DHT22;31888;44.512;26.104;2023-04-19T09:21:31;19.10;92.10
46159;DHT22;31888;44.512;26.104;2023-04-19T09:23:56;19.00;92.30
46159;DHT22;31888;44.512;26.104;2023-04-19T09:26:21;18.60;93.50
46159;DHT22;31888;44.512;26.104;2023-04-19T09:28:55;18.60;93.20
46159;DHT22;31888;44.512;26.104;2023-04-19T09:31:22;18.70;92.90
46159;DHT22;31888;44.512;26.104;2023-04-19T09:33:53;18.60;93.20
46159;DHT22;31888;44.512;26.104;2023-04-19T09:36:29;18.50;93.70
46159;DHT22;31888;44.512;26.104;2023-04-19T09:38:54;18.50;93.60
46159;DHT22;31888;44.512;26.104;2023-04-19T09:41:19;18.30;94.10
46159;DHT22;31888;44.512;26.104;2023-04-19T09:43:44;18.60;94.00
46159;DHT22;31888;44.512;26.104;2023-04-19T09:46:31;18.80;93.50
46159;DHT22;31888;44.512;26.104;2023-04-19T09:49:15;18.90;93.60
46159;DHT22;31888;44.512;26.104;2023-04-19T09:52:00;18.80;93.90
46159;DHT22;31888;44.512;26.104;2023-04-19T09:54:26;18.50;94.70
46159;DHT22;31888;44.512;26.104;2023-04-19T09:56:52;18.50;94.30
46159;DHT22;31888;44.512;26.104;2023-04-19T09:59:22;18.40;93.90
46159;DHT22;31888;44.512;26.104;2023-04-19T10:01:54;18.30;93.90
46159;DHT22;31888;44.512;26.104;2023-04-19T10:04:19;18.50;93.60
46159;DHT22;31888;44.512;26.104;2023-04-19T10:07:08;18.60;93.50
46159;DHT22;31888;44.512;26.104;2023-04-19T10:09:36;18.60;94.00
46159;DHT22;31888;44.512;26.104;2023-04-19T10:12:17;18.50;93.70
46159;DHT22;31888;44.512;26.104;2023-04-19T10:14:54;18.50;94.00
46159;DHT22;31888;44.512;26.104;2023-04-19T10:17:21;18.60;93.70
46159;DHT22;31888;44.512;26.104;2023-04-19T10:19:47;18.70;93.30
46159;DHT22;31888;44.512;26.104;2023-04-19T10:22:13;18.60;93.20
46159;DHT22;31888;44.512;26.104;2023-04-19T10:24:38;18.50;93.80
46159;DHT22;31888;44.512;26.104;2023-04-19T10:27:09;18.50;93.30
46159;DHT22;31888;44.512;26.104;2023-04-19T10:29:54;18.30;93.30
46159;DHT22;31888;44.512;26.104;2023-04-19T10:32:22;18.20;94.00
46159;DHT22;31888;44.512;26.104;2023-04-19T10:34:48;18.40;93.60
46159;DHT22;31888;44.512;26.104;2023-04-19T10:37:21;18.40;93.00
46159;DHT22;31888;44.512;26.104;2023-04-19T10:39:46;18.30;92.20
46159;DHT22;31888;44.512;26.104;2023-04-19T10:42:12;18.30;92.50
46159;DHT22;31888;44.512;26.104;2023-04-19T10:44:37;18.40;92.80
46159;DHT22;31888;44.512;26.104;2023-04-19T10:47:01;18.40;92.60
46159;DHT22;31888;44.512;26.104;2023-04-19T10:49:30;18.50;92.50
46159;DHT22;31888;44.512;26.104;2023-04-19T10:51:54;18.40;93.00
46159;DHT22;31888;44.512;26.104;2023-04-19T10:54:30;18.30;93.20
46159;DHT22;31888;44.512;26.104;2023-04-19T10:56:59;18.10;94.10
46159;DHT22;31888;44.512;26.104;2023-04-19T10:59:25;18.00;93.80
46159;DHT22;31888;44.512;26.104;2023-04-19T11:01:54;17.90;93.90
46159;DHT22;31888;44.512;26.104;2023-04-19T11:07:04;18.00;94.20
46159;DHT22;31888;44.512;26.104;2023-04-19T11:09:33;17.90;94.40
46159;DHT22;31888;44.512;26.104;2023-04-19T11:12:00;17.90;94.10
46159;DHT22;31888;44.512;26.104;2023-04-19T11:14:25;18.00;93.90
46159;DHT22;31888;44.512;26.104;2023-04-19T11:16:52;17.80;94.60
46159;DHT22;31888;44.512;26.104;2023-04-19T11:19:17;17.80;94.60
46159;DHT22;31888;44.512;26.104;2023-04-19T11:21:43;17.80;94.40
46159;DHT22;31888;44.512;26.104;2023-04-19T11:24:13;17.70;95.40
46159;DHT22;31888;44.512;26.104;2023-04-19T11:26:45;17.70;95.10
46159;DHT22;31888;44.512;26.104;2023-04-19T11:29:10;17.70;94.70
46159;DHT22;31888;44.512;26.104;2023-04-19T11:31:36;17.70;94.50
46159;DHT22;31888;44.512;26.104;2023-04-19T11:34:02;17.70;94.80
46159;DHT22;31888;44.512;26.104;2023-04-19T11:36:26;17.80;94.30
46159;DHT22;31888;44.512;26.104;2023-04-19T11:38:52;17.70;94.20
46159;DHT22;31888;44.512;26.104;2023-04-19T11:41:18;17.60;94.40
46159;DHT22;31888;44.512;26.104;2023-04-19T11:43:43;17.60;94.40
46159;DHT22;31888;44.512;26.104;2023-04-19T11:46:10;17.60;94.80
46159;DHT22;31888;44.512;26.104;2023-04-19T11:48:35;17.50;94.70
46159;DHT22;31888;44.512;26.104;2023-04-19T11:51:08;17.50;94.40
46159;DHT22;31888;44.512;26.104;2023-04-19T11:53:36;17.40;94.80
46159;DHT22;31888;44.512;26.104;2023-04-19T11:56:07;17.40;95.00
46159;DHT22;31888;44.512;26.104;2023-04-19T11:58:37;17.40;95.80
46159;DHT22;31888;44.512;26.104;2023-04-19T12:01:02;17.40;95.30
46159;DHT22;31888;44.512;26.104;2023-04-19T12:03:28;17.40;95.40
46159;DHT22;31888;44.512;26.104;2023-04-19T12:05:57;17.50;95.30
46159;DHT22;31888;44.512;26.104;2023-04-19T12:08:32;17.50;95.40
46159;DHT22;31888;44.512;26.104;2023-04-19T12:10:59;17.50;95.60
46159;DHT22;31888;44.512;26.104;2023-04-19T12:13:25;17.50;95.10
46159;DHT22;31888;44.512;26.104;2023-04-19T12:15:51;17.60;94.80
46159;DHT22;31888;44.512;26.104;2023-04-19T12:18:16;17.60;94.40
46159;DHT22;31888;44.512;26.104;2023-04-19T12:20:44;17.70;94.20
46159;DHT22;31888;44.512;26.104;2023-04-19T12:23:08;17.70;93.70
46159;DHT22;31888;44.512;26.104;2023-04-19T12:25:36;17.70;93.60
46159;DHT22;31888;44.512;26.104;2023-04-19T12:28:02;17.80;93.50
46159;DHT22;31888;44.512;26.104;2023-04-19T12:30:27;17.30;96.90
46159;DHT22;31888;44.512;26.104;2023-04-19T12:32:53;16.40;99.60
46159;DHT22;31888;44.512;26.104;2023-04-19T12:35:18;15.90;99.90
46159;DHT22;31888;44.512;26.104;2023-04-19T12:37:43;15.40;99.90
46159;DHT22;31888;44.512;26.104;2023-04-19T12:40:09;15.30;99.90
46159;DHT22;31888;44.512;26.104;2023-04-19T12:42:34;15.10;99.90
46159;DHT22;31888;44.512;26.104;2023-04-19T12:44:59;15.00;99.90
46159;DHT22;31888;44.512;26.104;2023-04-19T12:47:26;14.80;99.90
46159;DHT22;31888;44.512;26.104;2023-04-19T12:49:53;14.70;99.90
46159;DHT22;31888;44.512;26.104;2023-04-19T12:52:19;14.60;99.90
46159;DHT22;31888;44.512;26.104;2023-04-19T12:54:44;14.50;99.90
46159;DHT22;31888;44.512;26.104;2023-04-19T12:57:08;14.30;99.90
46159;DHT22;31888;44.512;26.104;2023-04-19T12:59:33;14.30;99.90
46159;DHT22;31888;44.512;26.104;2023-04-19T13:01:57;14.30;99.90
46159;DHT22;31888;44.512;26.104;2023-04-19T13:04:22;14.30;99.90
46159;DHT22;31888;44.512;26.104;2023-04-19T13:06:49;14.30;99.90
46159;DHT22;31888;44.512;26.104;2023-04-19T13:09:14;14.30;99.90
46159;DHT22;31888;44.512;26.104;2023-04-19T13:11:39;14.30;99.90
46159;DHT22;31888;44.512;26.104;2023-04-19T13:14:03;14.30;99.90
46159;DHT22;31888;44.512;26.104;2023-04-19T13:16:28;14.30;99.90
46159;DHT22;31888;44.512;26.104;2023-04-19T13:18:53;14.20;99.90
46159;DHT22;31888;44.512;26.104;2023-04-19T13:21:17;14.20;99.90
46159;DHT22;31888;44.512;26.104;2023-04-19T13:23:43;14.20;99.90
46159;DHT22;31888;44.512;26.104;2023-04-19T13:26:08;14.20;99.90
46159;DHT22;31888;44.512;26.104;2023-04-19T13:28:33;14.10;99.90
46159;DHT22;31888;44.512;26.104;2023-04-19T13:31:02;14.10;99.90
46159;DHT22;31888;44.512;26.104;2023-04-19T13:33:27;14.00;99.90
46159;DHT22;31888;44.512;26.104;2023-04-19T13:35:52;13.90;99.90
46159;DHT22;31888;44.512;26.104;2023-04-19T13:38:16;14.00;99.90
46159;DHT22;31888;44.512;26.104;2023-04-19T13:40:43;14.00;99.90
46159;DHT22;31888;44.512;26.104;2023-04-19T13:43:08;13.90;99.90
46159;DHT22;31888;44.512;26.104;2023-04-19T13:45:33;13.90;99.90
46159;DHT22;31888;44.512;26.104;2023-04-19T13:47:57;14.00;99.90
46159;DHT22;31888;44.512;26.104;2023-04-19T13:50:22;14.10;99.90
46159;DHT22;31888;44.512;26.104;2023-04-19T13:52:46;14.10;99.90
46159;DHT22;31888;44.512;26.104;2023-04-19T13:55:11;14.10;99.90
46159;DHT22;31888;44.512;26.104;2023-04-19T13:57:37;14.10;99.90
46159;DHT22;31888;44.512;26.104;2023-04-19T14:00:02;14.00;99.90
46159;DHT22;31888;44.512;26.104;2023-04-19T14:02:30;14.00;99.90
46159;DHT22;31888;44.512;26.104;2023-04-19T14:04:55;14.00;99.90
46159;DHT22;31888;44.512;26.104;2023-04-19T14:07:23;14.10;99.90
46159;DHT22;31888;44.512;26.104;2023-04-19T14:09:50;14.10;99.90
46159;DHT22;31888;44.512;26.104;2023-04-19T14:12:15;14.10;99.90
46159;DHT22;31888;44.512;26.104;2023-04-19T14:14:41;14.10;99.90
46159;DHT22;31888;44.512;26.104;2023-04-19T14:17:05;14.10;99.90
46159;DHT22;31888;44.512;26.104;2023-04-19T14:19:30;14.20;99.90
46159;DHT22;31888;44.512;26.104;2023-04-19T14:21:55;14.20;99.90
46159;DHT22;31888;44.512;26.104;2023-04-19T14:24:21;14.20;99.90
46159;DHT22;31888;44.512;26.104;2023-04-19T14:26:46;14.30;99.90
46159;DHT22;31888;44.512;26.104;2023-04-19T14:29:36;14.20;99.90
46159;DHT22;31888;44.512;26.104;2023-04-19T14:32:49;14.20;99.90
46159;DHT22;31888;44.512;26.104;2023-04-19T14:35:15;14.30;99.90
46159;DHT22;31888;44.512;26.104;2023-04-19T14:37:39;14.20;99.90
46159;DHT22;31888;44.512;26.104;2023-04-19T14:40:05;14.10;99.90
46159;DHT22;31888;44.512;26.104;2023-04-19T14:42:29;14.10;99.90
46159;DHT22;31888;44.512;26.104;2023-04-19T14:44:54;14.10;99.90
46159;DHT22;31888;44.512;26.104;2023-04-19T14:47:19;14.40;99.90
46159;DHT22;31888;44.512;26.104;2023-04-19T14:49:45;15.00;99.90
46159;DHT22;31888;44.512;26.104;2023-04-19T14:52:10;15.70;99.90
46159;DHT22;31888;44.512;26.104;2023-04-19T14:54:34;15.90;99.90
46159;DHT22;31888;44.512;26.104;2023-04-19T14:56:59;15.90;99.90
46159;DHT22;31888;44.512;26.104;2023-04-19T14:59:24;15.90;99.90
46159;DHT22;31888;44.512;26.104;2023-04-19T15:01:51;16.20;99.90
46159;DHT22;31888;44.512;26.104;2023-04-19T15:04:16;16.50;99.90
46159;DHT22;31888;44.512;26.104;2023-04-19T15:06:42;16.80;99.90
46159;DHT22;31888;44.512;26.104;2023-04-19T15:09:07;17.20;99.90
46159;DHT22;31888;44.512;26.104;2023-04-19T15:11:31;17.40;99.90
46159;DHT22;31888;44.512;26.104;2023-04-19T15:13:56;17.70;99.90
46159;DHT22;31888;44.512;26.104;2023-04-19T15:16:21;18.00;99.90
46159;DHT22;31888;44.512;26.104;2023-04-19T15:18:45;18.20;99.90